»·PEaware :: TEXAN21 KRND-KRND

TEXAN21 :: KRND-KRND

FLIGHT INFORMATION

Flight Status: Arrived
Operator: Unknown
More flights by this operator :: More flights under this callsign
Pilot: Indie I. (23342)
Aircraft: BEECH AIRCRAFT T-6A TEXAN
(TEX2)
More flights by this aircraft type
Origin: KRND Randolph AFB
United States
Destination: KRND Randolph AFB
United States
More flights between these airports :: More routes between these airports
Route: KRND KRND
File this flight plan on PilotEdge
Remarks: Patterns 33L
Altitude:
(Current/Filed)
1,800ft
Speed:
(Current/Filed)
200kts
Departed: 17-Aug-20 01:10 PM
Arrived: 17-Aug-20 01:41 PM
Distance/Time
Traveled:
0nm/0:31
Distance/Time
To Go:
Arrived

Flight Plot

Page will automatically refresh every two minutes.

Flight plan parsing failed; only flown route is shown


Map Options




Map Legend


Flown Route
Filed Route
Departure Airport
Arrival Airport
Navaid (VOR, NDB)
Fix

Horizontal Profiles

Position Reports

Time Latitude Longitude Heading Altitude Ground
Speed
17-Aug-20 12:46 29.530971 -98.288052 239 765ft 0kts
17-Aug-20 12:47 29.530971 -98.288052 239 765ft 0kts
17-Aug-20 12:48 29.530971 -98.288052 239 765ft 0kts
17-Aug-20 12:49 29.530971 -98.288052 239 765ft 0kts
17-Aug-20 12:50 29.530971 -98.288052 239 765ft 0kts
17-Aug-20 12:51 29.530971 -98.288052 239 765ft 0kts
17-Aug-20 12:52 29.530971 -98.288052 239 765ft 0kts
17-Aug-20 12:53 29.530971 -98.288052 239 765ft 0kts
17-Aug-20 12:54 29.530971 -98.288053 239 765ft 0kts
17-Aug-20 12:55 29.530970 -98.288054 239 765ft 0kts
17-Aug-20 12:56 29.530969 -98.288056 239 765ft 0kts
17-Aug-20 12:57 29.530968 -98.288059 239 765ft 0kts
17-Aug-20 12:58 29.530967 -98.288061 239 765ft 0kts
17-Aug-20 12:59 29.530966 -98.288063 239 765ft 0kts
17-Aug-20 13:00 29.530964 -98.288067 239 765ft 0kts
17-Aug-20 13:01 29.529202 -98.287317 149 765ft 16kts
17-Aug-20 13:02 29.523807 -98.283734 147 765ft 18kts
17-Aug-20 13:03 29.520686 -98.281686 152 765ft 10kts
17-Aug-20 13:04 29.517103 -98.279330 148 765ft 24kts
17-Aug-20 13:05 29.515440 -98.278778 256 765ft 5kts
17-Aug-20 13:06 29.515517 -98.279046 303 765ft 0kts
17-Aug-20 13:07 29.515518 -98.279049 303 765ft 0kts
17-Aug-20 13:08 29.515546 -98.280562 332 765ft 21kts
17-Aug-20 13:09 29.547630 -98.309202 264 1626ft 227kts
17-Aug-20 13:10 29.499829 -98.318565 146 1802ft 232kts
17-Aug-20 13:11 29.474653 -98.271330 55 1839ft 211kts
17-Aug-20 13:12 29.523106 -98.285644 316 1648ft 216kts
17-Aug-20 13:13 29.491418 -98.280715 96 1635ft 131kts
17-Aug-20 13:14 29.525878 -98.288045 327 1260ft 216kts
17-Aug-20 13:15 29.525670 -98.333166 164 1582ft 238kts
17-Aug-20 13:16 29.472609 -98.295465 151 1774ft 217kts
17-Aug-20 13:17 29.498254 -98.269115 329 1811ft 204kts
17-Aug-20 13:18 29.504264 -98.291582 149 1816ft 155kts
17-Aug-20 13:19 29.510481 -98.277233 330 878ft 96kts
17-Aug-20 13:20 29.538133 -98.295492 313 1289ft 189kts
17-Aug-20 13:21 29.503028 -98.292174 151 1817ft 113kts
17-Aug-20 13:22 29.504670 -98.273263 327 1133ft 116kts
17-Aug-20 13:23 29.538078 -98.298599 275 1688ft 198kts
17-Aug-20 13:24 29.501428 -98.288963 148 1769ft 141kts
17-Aug-20 13:25 29.511909 -98.278160 329 827ft 96kts
17-Aug-20 13:26 29.543368 -98.298813 329 1370ft 207kts
17-Aug-20 13:27 29.511122 -98.323337 147 1875ft 221kts
17-Aug-20 13:28 29.457295 -98.287592 155 1751ft 222kts
17-Aug-20 13:29 29.471111 -98.249253 341 1524ft 145kts
17-Aug-20 13:30 29.501501 -98.271136 330 1127ft 131kts
17-Aug-20 13:31 29.527725 -98.288485 331 1048ft 151kts
17-Aug-20 13:32 29.525633 -98.333713 153 1714ft 210kts
17-Aug-20 13:33 29.477120 -98.299843 151 1873ft 214kts
17-Aug-20 13:34 29.447672 -98.258119 61 1377ft 173kts
17-Aug-20 13:35 29.481690 -98.258477 331 1325ft 130kts
17-Aug-20 13:36 29.512161 -98.278225 329 844ft 105kts
17-Aug-20 13:37 29.529890 -98.290025 330 1120ft 154kts
17-Aug-20 13:38 29.511781 -98.297812 150 1832ft 135kts
17-Aug-20 13:39 29.507187 -98.275356 337 1060ft 113kts
17-Aug-20 13:40 29.522286 -98.284206 50 765ft 11kts
17-Aug-20 13:41 29.524224 -98.284012 331 765ft 9kts
17-Aug-20 13:42 29.525917 -98.284430 347 765ft 7kts
17-Aug-20 13:43 29.526398 -98.284966 239 765ft 0kts

Navigation Log

Ident Type
Flight plan parsing failed, navigation log unavailable